createdAt,value
2023-05-02T00:00:04.133Z,3.70
2023-05-02T00:02:31.729Z,3.87
2023-05-02T00:05:01.067Z,4.20
2023-05-02T00:07:28.782Z,3.33
2023-05-02T00:09:56.269Z,4.17
2023-05-02T00:12:23.730Z,4.60
2023-05-02T00:14:51.224Z,5.20
2023-05-02T00:17:19.615Z,3.83
2023-05-02T00:19:47.666Z,4.30
2023-05-02T00:22:16.459Z,4.67
2023-05-02T00:24:43.900Z,3.70
2023-05-02T00:27:11.404Z,4.93
2023-05-02T00:29:38.856Z,4.60
2023-05-02T00:32:06.995Z,4.70
2023-05-02T00:34:34.632Z,4.77
2023-05-02T00:37:02.093Z,4.90
2023-05-02T00:39:30.913Z,4.77
2023-05-02T00:41:58.741Z,4.53
2023-05-02T00:44:26.260Z,5.30
2023-05-02T00:46:53.836Z,5.37
2023-05-02T00:49:21.387Z,5.07
2023-05-02T00:51:48.877Z,5.60
2023-05-02T00:54:16.594Z,4.73
2023-05-02T00:56:45.588Z,4.33
2023-05-02T00:59:13.395Z,5.53
2023-05-02T01:01:51.610Z,5.17
2023-05-02T01:04:26.527Z,5.43
2023-05-02T01:07:01.433Z,5.50
2023-05-02T01:09:36.541Z,5.77
2023-05-02T01:12:07.664Z,5.40
2023-05-02T01:14:37.140Z,6.03
2023-05-02T01:17:06.312Z,6.90
2023-05-02T01:19:37.316Z,6.67
2023-05-02T01:22:07.930Z,7.10
2023-05-02T01:24:40.242Z,8.50
2023-05-02T01:27:17.112Z,8.90
2023-05-02T01:29:46.821Z,8.57
2023-05-02T01:32:16.336Z,8.87
2023-05-02T01:34:44.368Z,9.90
2023-05-02T01:37:12.987Z,10.80
2023-05-02T01:39:41.363Z,10.30
2023-05-02T01:42:08.831Z,10.93
2023-05-02T01:44:37.542Z,9.77
2023-05-02T01:47:07.514Z,8.23
2023-05-02T01:49:35.764Z,8.73
2023-05-02T01:52:05.709Z,10.03
2023-05-02T01:54:34.635Z,9.03
2023-05-02T01:57:03.768Z,9.37
2023-05-02T01:59:31.593Z,11.73
2023-05-02T02:02:00.649Z,9.47
2023-05-02T02:04:29.901Z,12.17
2023-05-02T02:07:03.673Z,11.97
2023-05-02T02:09:31.478Z,11.57
2023-05-02T02:12:04.548Z,12.00
2023-05-02T02:14:35.381Z,10.33
2023-05-02T02:17:03.689Z,9.70
2023-05-02T02:19:33.044Z,9.70
2023-05-02T02:22:01.552Z,9.53
2023-05-02T02:24:29.890Z,9.90
2023-05-02T02:26:57.584Z,9.67
2023-05-02T02:29:25.453Z,9.13
2023-05-02T02:31:52.915Z,9.20
2023-05-02T02:34:21.092Z,14.17
2023-05-02T02:36:54.808Z,13.83
2023-05-02T02:39:31.543Z,15.03
2023-05-02T02:42:04.621Z,14.23
2023-05-02T02:44:41.007Z,14.40
2023-05-02T02:47:13.161Z,12.93
2023-05-02T02:49:48.850Z,10.97
2023-05-02T02:52:23.441Z,12.30
2023-05-02T02:54:53.887Z,11.40
2023-05-02T02:57:35.727Z,11.37
2023-05-02T03:00:08.399Z,10.53
2023-05-02T03:02:36.984Z,11.60
2023-05-02T03:05:06.296Z,11.33
2023-05-02T03:07:35.106Z,11.90
2023-05-02T03:10:04.206Z,11.50
2023-05-02T03:12:32.004Z,10.83
2023-05-02T03:15:07.212Z,11.50
2023-05-02T03:17:34.677Z,11.03
2023-05-02T03:20:02.299Z,11.70
2023-05-02T03:22:29.915Z,10.80
2023-05-02T03:24:58.702Z,11.13
2023-05-02T03:27:26.215Z,11.30
2023-05-02T03:29:53.653Z,9.83
2023-05-02T03:32:21.217Z,11.87
2023-05-02T03:34:49.404Z,13.93
2023-05-02T03:37:16.900Z,16.30
2023-05-02T03:39:45.220Z,20.33
2023-05-02T03:42:14.077Z,21.00
2023-05-02T03:44:41.567Z,21.40
2023-05-02T03:47:09.173Z,23.13
2023-05-02T03:49:36.962Z,23.33
2023-05-02T03:52:04.420Z,23.53
2023-05-02T03:54:34.166Z,23.10
2023-05-02T03:57:01.686Z,23.00
2023-05-02T03:59:30.709Z,21.70
2023-05-02T04:01:58.196Z,22.67
2023-05-02T04:04:25.891Z,23.03
2023-05-02T04:06:53.382Z,20.70
2023-05-02T04:09:25.028Z,21.77
2023-05-02T04:11:52.754Z,20.67
2023-05-02T04:14:20.222Z,21.13
2023-05-02T04:16:50.598Z,21.23
2023-05-02T04:19:19.023Z,21.90
2023-05-02T04:21:46.612Z,21.23
2023-05-02T04:24:14.429Z,20.77
2023-05-02T04:26:41.976Z,21.33
2023-05-02T04:29:09.452Z,22.43
2023-05-02T04:31:37.132Z,23.00
2023-05-02T04:34:05.961Z,20.77
2023-05-02T04:36:34.032Z,20.97
2023-05-02T04:39:01.497Z,21.57
2023-05-02T04:41:29.107Z,20.27
2023-05-02T04:43:56.565Z,21.50
2023-05-02T04:46:24.012Z,21.67
2023-05-02T04:48:51.530Z,20.63
2023-05-02T04:51:20.317Z,22.33
2023-05-02T04:53:47.749Z,21.23
2023-05-02T04:56:15.194Z,21.37
2023-05-02T04:58:42.638Z,23.33
2023-05-02T05:01:10.240Z,22.63
2023-05-02T05:03:38.063Z,21.50
2023-05-02T05:06:05.838Z,23.90
2023-05-02T05:08:34.677Z,23.37
2023-05-02T05:11:02.528Z,24.53
2023-05-02T05:13:30.026Z,23.30
2023-05-02T05:15:57.542Z,22.70
2023-05-02T05:18:25.087Z,22.10
2023-05-02T05:20:52.534Z,26.10
2023-05-02T05:23:20.010Z,22.20
2023-05-02T05:25:48.965Z,23.43
2023-05-02T05:28:16.421Z,22.73
2023-05-02T05:30:43.873Z,22.07
2023-05-02T05:33:11.489Z,22.77
2023-05-02T05:35:39.042Z,23.50
2023-05-02T05:38:06.929Z,20.70
2023-05-02T05:40:34.379Z,22.17
2023-05-02T05:43:03.138Z,22.47
2023-05-02T05:45:30.585Z,23.10
2023-05-02T05:48:06.098Z,24.10
2023-05-02T05:50:33.572Z,22.90
2023-05-02T05:53:01.012Z,22.53
2023-05-02T05:55:28.690Z,23.07
2023-05-02T05:57:56.117Z,22.23
2023-05-02T06:00:24.962Z,19.90
2023-05-02T06:02:52.550Z,23.07
2023-05-02T06:05:20.087Z,20.27
2023-05-02T06:07:47.509Z,20.00
2023-05-02T06:10:15.144Z,22.77
2023-05-02T06:12:42.593Z,20.90
2023-05-02T06:15:10.719Z,20.30
2023-05-02T06:17:39.534Z,19.90
2023-05-02T06:20:08.423Z,20.63
2023-05-02T06:22:35.862Z,20.83
2023-05-02T06:25:05.151Z,22.63
2023-05-02T06:27:33.777Z,19.03
2023-05-02T06:30:01.675Z,20.77
2023-05-02T06:32:31.407Z,22.00
2023-05-02T06:35:00.252Z,20.00
2023-05-02T06:37:27.775Z,19.77
2023-05-02T06:39:55.229Z,19.97
2023-05-02T06:42:22.664Z,19.67
2023-05-02T06:44:50.139Z,21.73
2023-05-02T06:47:17.704Z,21.57
2023-05-02T06:49:45.251Z,21.50
2023-05-02T06:52:14.032Z,18.80
2023-05-02T06:54:42.358Z,19.00
2023-05-02T06:57:10.956Z,18.83
2023-05-02T06:59:38.422Z,18.67
2023-05-02T07:02:05.892Z,18.87
2023-05-02T07:04:33.455Z,19.13
2023-05-02T07:07:00.997Z,18.23
2023-05-02T07:09:42.346Z,16.87
2023-05-02T07:12:09.792Z,16.20
2023-05-02T07:14:37.267Z,17.03
2023-05-02T07:17:04.783Z,16.97
2023-05-02T07:19:32.282Z,15.40
2023-05-02T07:21:59.726Z,14.40
2023-05-02T07:24:27.321Z,14.23
2023-05-02T07:26:56.156Z,13.93
2023-05-02T07:29:23.787Z,14.07
2023-05-02T07:31:51.534Z,15.33
2023-05-02T07:34:19.026Z,15.57
2023-05-02T07:36:46.455Z,13.77
2023-05-02T07:39:14.069Z,14.83
2023-05-02T07:41:41.539Z,13.40
2023-05-02T07:44:10.326Z,13.50
2023-05-02T07:46:37.890Z,11.83
2023-05-02T07:49:05.748Z,13.40
2023-05-02T07:51:33.812Z,13.77
2023-05-02T07:54:01.838Z,15.63
2023-05-02T07:56:30.011Z,14.50
2023-05-02T07:58:57.548Z,13.47
2023-05-02T08:01:26.342Z,14.67
2023-05-02T08:03:54.073Z,13.27
2023-05-02T08:06:22.558Z,12.30
2023-05-02T08:08:50.084Z,13.33
2023-05-02T08:11:17.513Z,13.00
2023-05-02T08:13:45.015Z,13.17
2023-05-02T08:16:12.667Z,12.90
2023-05-02T08:18:42.255Z,14.73
2023-05-02T08:21:09.748Z,12.23
2023-05-02T08:23:37.651Z,10.57
2023-05-02T08:26:05.721Z,10.73
2023-05-02T08:28:33.214Z,11.20
2023-05-02T08:31:00.713Z,13.67
2023-05-02T08:33:28.201Z,13.90
2023-05-02T08:35:56.979Z,13.47
2023-05-02T08:38:24.453Z,15.07
2023-05-02T08:40:51.910Z,13.83
2023-05-02T08:43:19.395Z,13.00
2023-05-02T08:45:46.872Z,14.00
2023-05-02T08:48:16.773Z,15.07
2023-05-02T08:50:46.605Z,13.07
2023-05-02T08:53:15.546Z,13.43
2023-05-02T08:55:43.728Z,14.00
2023-05-02T08:58:14.661Z,12.93
2023-05-02T09:00:44.033Z,12.20
2023-05-02T09:03:21.348Z,13.47
2023-05-02T09:05:55.082Z,11.43
2023-05-02T09:08:24.971Z,12.80
2023-05-02T09:10:52.723Z,11.70
2023-05-02T09:13:30.613Z,12.60
2023-05-02T09:15:59.483Z,11.23
2023-05-02T09:18:29.742Z,12.67
2023-05-02T09:20:57.727Z,12.33
2023-05-02T09:23:35.133Z,12.43
2023-05-02T09:26:03.144Z,12.03
2023-05-02T09:28:41.842Z,10.23
2023-05-02T09:31:10.336Z,10.37
2023-05-02T09:33:38.461Z,12.63
2023-05-02T09:36:07.089Z,11.07
2023-05-02T09:38:35.897Z,9.67
2023-05-02T09:41:04.543Z,11.40
2023-05-02T09:43:32.860Z,9.10
2023-05-02T09:46:01.979Z,9.47
2023-05-02T09:48:30.599Z,9.17
2023-05-02T09:50:58.619Z,9.60
2023-05-02T09:53:27.660Z,8.63
2023-05-02T09:56:04.091Z,8.10
2023-05-02T09:58:32.037Z,8.87
2023-05-02T10:00:59.854Z,9.10
2023-05-02T10:03:28.932Z,10.03
2023-05-02T10:05:57.356Z,7.27
2023-05-02T10:08:28.448Z,7.73
2023-05-02T10:10:57.172Z,8.60
2023-05-02T10:13:32.006Z,6.00
2023-05-02T10:16:01.394Z,6.77
2023-05-02T10:18:31.903Z,5.90
2023-05-02T10:21:00.751Z,5.30
2023-05-02T10:23:29.201Z,5.33
2023-05-02T10:26:00.032Z,5.83
2023-05-02T10:28:29.997Z,5.90
2023-05-02T10:30:58.339Z,5.80
2023-05-02T10:33:26.122Z,5.63
2023-05-02T10:35:53.771Z,5.40
2023-05-02T10:38:23.354Z,4.87
2023-05-02T10:40:56.059Z,5.80
2023-05-02T10:43:25.749Z,5.73
2023-05-02T10:45:55.654Z,5.30
2023-05-02T10:48:24.898Z,6.53
2023-05-02T10:50:53.800Z,4.90
2023-05-02T10:53:28.708Z,5.37
2023-05-02T10:56:18.649Z,5.10
2023-05-02T10:58:46.936Z,5.73
2023-05-02T11:01:39.652Z,4.90
2023-05-02T11:04:08.187Z,4.07
2023-05-02T11:06:36.869Z,3.20
2023-05-02T11:09:35.290Z,3.60
2023-05-02T11:12:04.848Z,3.50
2023-05-02T11:14:49.562Z,3.80
2023-05-02T11:17:19.073Z,3.83
2023-05-02T11:20:29.029Z,4.00
2023-05-02T11:23:02.337Z,3.87
2023-05-02T11:25:39.990Z,3.27
2023-05-02T11:28:09.417Z,3.17
2023-05-02T11:30:44.606Z,2.37
2023-05-02T11:33:17.456Z,3.17
2023-05-02T11:35:46.637Z,2.37
2023-05-02T11:38:16.275Z,3.20
2023-05-02T11:40:58.476Z,3.30
2023-05-02T11:43:29.365Z,3.40
2023-05-02T11:46:00.058Z,2.70
2023-05-02T11:48:29.149Z,3.20
2023-05-02T11:50:58.206Z,3.07
2023-05-02T11:53:27.693Z,2.30
2023-05-02T11:55:57.253Z,2.50
2023-05-02T11:58:26.112Z,2.77
2023-05-02T12:00:54.425Z,2.40
2023-05-02T12:03:23.417Z,3.20
2023-05-02T12:05:52.503Z,3.03
2023-05-02T12:08:25.038Z,2.47
2023-05-02T12:10:54.115Z,2.83
2023-05-02T12:13:23.348Z,3.80
2023-05-02T12:15:51.705Z,2.90
2023-05-02T12:18:22.078Z,3.57
2023-05-02T12:20:49.834Z,3.53
2023-05-02T12:23:18.977Z,3.90
2023-05-02T12:25:46.485Z,4.13
2023-05-02T12:28:14.026Z,3.40
2023-05-02T12:30:41.777Z,3.93
2023-05-02T12:33:09.666Z,3.03
2023-05-02T12:35:37.378Z,3.50
2023-05-02T12:38:13.336Z,5.17
2023-05-02T12:40:48.136Z,3.20
2023-05-02T12:43:15.580Z,3.20
2023-05-02T12:45:43.694Z,3.43
2023-05-02T12:48:25.060Z,3.60
2023-05-02T12:50:53.016Z,2.87
2023-05-02T12:53:41.975Z,3.10
2023-05-02T12:56:13.947Z,2.77
2023-05-02T12:58:43.558Z,2.60
2023-05-02T13:01:11.290Z,2.83
2023-05-02T13:03:39.276Z,2.10
2023-05-02T13:06:07.259Z,1.67
2023-05-02T13:08:35.282Z,2.10
2023-05-02T13:11:03.870Z,2.03
2023-05-02T13:13:33.416Z,1.70
2023-05-02T13:16:00.995Z,2.87
2023-05-02T13:18:28.908Z,3.20
2023-05-02T13:20:56.457Z,3.20
2023-05-02T13:23:23.888Z,3.50
2023-05-02T13:25:51.329Z,2.63
2023-05-02T13:28:18.866Z,2.70
2023-05-02T13:30:47.741Z,3.30
2023-05-02T13:33:15.357Z,2.53
2023-05-02T13:35:42.955Z,3.00
2023-05-02T13:38:10.461Z,2.80
2023-05-02T13:40:37.959Z,3.07
2023-05-02T13:43:05.656Z,2.97
2023-05-02T13:45:33.524Z,2.70
2023-05-02T13:48:02.481Z,3.40
2023-05-02T13:50:29.970Z,3.93
2023-05-02T13:52:57.413Z,3.23
2023-05-02T13:55:24.930Z,3.50
2023-05-02T13:57:52.392Z,3.27
2023-05-02T14:00:20.988Z,4.20
2023-05-02T14:02:49.153Z,5.03
2023-05-02T14:05:18.023Z,4.17
2023-05-02T14:07:45.493Z,5.17
2023-05-02T14:10:12.963Z,4.40
2023-05-02T14:12:40.622Z,3.90
2023-05-02T14:15:09.686Z,4.63
2023-05-02T14:17:37.137Z,4.57
2023-05-02T14:20:05.799Z,3.90
2023-05-02T14:22:34.662Z,3.33
2023-05-02T14:25:02.188Z,3.97
2023-05-02T14:27:29.627Z,3.77
2023-05-02T14:29:57.169Z,3.53
2023-05-02T14:32:24.599Z,3.47
2023-05-02T14:34:52.051Z,3.90
2023-05-02T14:37:19.507Z,3.57
2023-05-02T14:39:51.634Z,3.50
2023-05-02T14:42:20.293Z,3.40
2023-05-02T14:44:47.721Z,4.00
2023-05-02T14:47:15.267Z,3.43
2023-05-02T14:49:42.864Z,3.90
2023-05-02T14:52:10.374Z,3.37
2023-05-02T14:54:37.878Z,3.40
2023-05-02T14:57:07.914Z,3.40
2023-05-02T14:59:35.874Z,3.00
2023-05-02T15:02:03.465Z,3.80
2023-05-02T15:04:31.194Z,3.23
2023-05-02T15:06:58.900Z,4.03
2023-05-02T15:09:26.924Z,4.23
2023-05-02T15:11:54.508Z,3.80
2023-05-02T15:14:23.447Z,3.57
2023-05-02T15:16:51.360Z,3.23
2023-05-02T15:19:18.925Z,3.40
2023-05-02T15:21:46.380Z,3.40
2023-05-02T15:24:13.873Z,3.53
2023-05-02T15:26:41.344Z,3.20
2023-05-02T15:29:08.851Z,2.80
2023-05-02T15:31:38.094Z,2.60
2023-05-02T15:34:05.656Z,2.93
2023-05-02T15:36:37.114Z,2.50
2023-05-02T15:39:04.620Z,2.60
2023-05-02T15:41:32.099Z,2.30
2023-05-02T15:44:00.013Z,2.17
2023-05-02T15:46:27.736Z,2.87
2023-05-02T15:48:56.778Z,2.50
2023-05-02T15:51:24.246Z,3.10
2023-05-02T15:53:52.615Z,2.40
2023-05-02T15:56:21.118Z,2.40
2023-05-02T15:58:48.767Z,2.97
2023-05-02T16:01:16.294Z,3.60
2023-05-02T16:03:44.011Z,2.83
2023-05-02T16:06:12.875Z,3.37
2023-05-02T16:08:40.300Z,3.07
2023-05-02T16:11:07.899Z,2.93
2023-05-02T16:13:35.452Z,3.33
2023-05-02T16:16:02.983Z,2.87
2023-05-02T16:18:31.160Z,2.47
2023-05-02T16:20:59.367Z,3.23
2023-05-02T16:23:28.536Z,2.77
2023-05-02T16:26:40.648Z,2.47
2023-05-02T16:29:08.117Z,3.30
2023-05-02T16:31:35.855Z,2.67
2023-05-02T16:34:03.930Z,2.50
2023-05-02T16:36:33.867Z,2.77
2023-05-02T16:39:07.952Z,2.37
2023-05-02T16:41:35.749Z,2.70
2023-05-02T16:44:03.249Z,3.17
2023-05-02T16:46:32.243Z,2.30
2023-05-02T16:48:59.749Z,2.37
2023-05-02T16:51:27.960Z,2.23
2023-05-02T16:53:55.584Z,2.70
2023-05-02T16:56:24.385Z,2.50
2023-05-02T16:58:51.816Z,2.20
2023-05-02T17:01:19.321Z,2.40
2023-05-02T17:03:46.949Z,2.33
2023-05-02T17:06:14.442Z,2.93
2023-05-02T17:08:42.016Z,2.97
2023-05-02T17:11:09.449Z,2.77
2023-05-02T17:13:38.485Z,2.23
2023-05-02T17:16:08.160Z,2.60
2023-05-02T17:18:35.820Z,3.57
2023-05-02T17:21:04.045Z,2.73
2023-05-02T17:23:31.739Z,2.70
2023-05-02T17:25:59.460Z,3.00
2023-05-02T17:28:26.981Z,3.20
2023-05-02T17:30:56.051Z,2.97
2023-05-02T17:33:23.573Z,2.70
2023-05-02T17:35:51.258Z,4.30
2023-05-02T17:38:18.700Z,3.10
2023-05-02T17:40:46.245Z,2.70
2023-05-02T17:43:13.713Z,3.37
2023-05-02T17:45:41.568Z,2.83
2023-05-02T17:48:11.091Z,2.53
2023-05-02T17:50:38.749Z,2.80
2023-05-02T17:53:06.561Z,1.90
2023-05-02T17:55:37.184Z,2.40
2023-05-02T17:58:04.719Z,2.60
2023-05-02T18:00:32.245Z,1.90
2023-05-02T18:02:59.810Z,2.67
2023-05-02T18:05:29.312Z,2.20
2023-05-02T18:07:58.707Z,2.23
2023-05-02T18:10:26.257Z,2.17
2023-05-02T18:12:53.759Z,2.20
2023-05-02T18:15:21.891Z,2.30
2023-05-02T18:17:49.409Z,3.23
2023-05-02T18:20:17.017Z,2.27
2023-05-02T18:22:46.113Z,2.43
2023-05-02T18:25:13.568Z,2.13
2023-05-02T18:27:41.046Z,3.00
2023-05-02T18:30:09.676Z,2.73
2023-05-02T18:32:37.210Z,2.40
2023-05-02T18:35:04.981Z,2.80
2023-05-02T18:37:32.465Z,3.30
2023-05-02T18:40:02.874Z,2.70
2023-05-02T18:42:30.367Z,3.60
2023-05-02T18:44:57.820Z,2.97
2023-05-02T18:47:25.396Z,2.80
2023-05-02T18:49:56.358Z,2.93
2023-05-02T18:52:24.567Z,2.80
2023-05-02T18:54:51.990Z,2.57
2023-05-02T18:57:21.459Z,3.13
2023-05-02T18:59:48.942Z,3.47
2023-05-02T19:02:16.438Z,3.70
2023-05-02T19:04:43.974Z,3.27
2023-05-02T19:07:11.393Z,2.80
2023-05-02T19:09:38.832Z,3.70
2023-05-02T19:12:06.494Z,2.83
2023-05-02T19:14:35.840Z,2.87
2023-05-02T19:17:05.540Z,2.70
2023-05-02T19:19:33.179Z,2.80
2023-05-02T19:22:01.125Z,2.80
2023-05-02T19:24:28.608Z,3.00
2023-05-02T19:26:56.418Z,3.80
2023-05-02T19:29:23.966Z,2.80
2023-05-02T19:31:52.811Z,2.27
2023-05-02T19:34:20.773Z,2.53
2023-05-02T19:36:48.203Z,3.40
2023-05-02T19:39:16.194Z,2.80
2023-05-02T19:41:44.135Z,3.50
2023-05-02T19:44:11.653Z,2.40
2023-05-02T19:46:39.193Z,2.70
2023-05-02T19:49:08.250Z,2.40
2023-05-02T19:51:35.694Z,2.93
2023-05-02T19:54:03.179Z,3.30
2023-05-02T19:56:30.690Z,3.10
2023-05-02T19:58:58.603Z,3.17
2023-05-02T20:01:26.652Z,4.10
2023-05-02T20:03:54.793Z,4.43
2023-05-02T20:06:23.758Z,2.70
2023-05-02T20:08:52.727Z,2.53
2023-05-02T20:11:20.225Z,2.60
2023-05-02T20:13:47.819Z,1.90
2023-05-02T20:16:16.032Z,2.30
2023-05-02T20:18:43.523Z,2.50
2023-05-02T20:21:11.079Z,2.20
2023-05-02T20:23:43.154Z,3.10
2023-05-02T20:26:10.863Z,2.20
2023-05-02T20:28:52.094Z,2.80
2023-05-02T20:31:19.551Z,2.67
2023-05-02T20:33:47.120Z,2.53
2023-05-02T20:36:15.633Z,2.90
2023-05-02T20:38:44.971Z,2.60
2023-05-02T20:41:13.809Z,3.80
2023-05-02T20:43:44.589Z,3.17
2023-05-02T20:46:12.993Z,2.70
2023-05-02T20:48:40.588Z,2.67
2023-05-02T20:51:08.636Z,3.17
2023-05-02T20:53:36.629Z,3.07
2023-05-02T20:56:06.052Z,2.70
2023-05-02T20:58:33.518Z,3.13
2023-05-02T21:01:01.051Z,3.20
2023-05-02T21:03:29.076Z,2.37
2023-05-02T21:05:59.433Z,2.77
2023-05-02T21:08:26.888Z,2.50
2023-05-02T21:10:54.624Z,2.30
2023-05-02T21:13:23.762Z,2.40
2023-05-02T21:15:51.276Z,2.43
2023-05-02T21:18:18.803Z,2.97
2023-05-02T21:20:49.076Z,3.20
2023-05-02T21:23:16.536Z,3.33
2023-05-02T21:25:44.130Z,3.10
2023-05-02T21:28:12.352Z,2.70
2023-05-02T21:30:41.281Z,2.50
2023-05-02T21:33:09.192Z,2.40
2023-05-02T21:35:36.861Z,3.17
2023-05-02T21:38:04.307Z,2.40
2023-05-02T21:40:32.304Z,3.00
2023-05-02T21:42:59.734Z,2.50
2023-05-02T21:45:27.641Z,3.00
2023-05-02T21:47:57.042Z,2.90
2023-05-02T21:50:24.744Z,2.87
2023-05-02T21:52:52.184Z,2.87
2023-05-02T21:55:19.663Z,2.50
2023-05-02T21:57:47.188Z,3.50
2023-05-02T22:00:15.307Z,3.50
2023-05-02T22:02:42.956Z,2.93
2023-05-02T22:05:13.608Z,2.83
2023-05-02T22:07:41.644Z,3.00
2023-05-02T22:10:11.518Z,3.40
2023-05-02T22:12:38.937Z,2.70
2023-05-02T22:15:08.255Z,2.97
2023-05-02T22:17:36.087Z,3.40
2023-05-02T22:20:03.969Z,3.43
2023-05-02T22:22:32.946Z,3.37
2023-05-02T22:25:02.688Z,3.80
2023-05-02T22:27:30.100Z,4.23
2023-05-02T22:29:57.542Z,3.50
2023-05-02T22:32:25.604Z,3.10
2023-05-02T22:34:53.137Z,3.00
2023-05-02T22:37:20.715Z,2.93
2023-05-02T22:39:49.529Z,3.13
2023-05-02T22:42:16.951Z,2.90
2023-05-02T22:44:53.638Z,3.20
2023-05-02T22:47:22.583Z,3.43
2023-05-02T22:49:51.006Z,3.83
2023-05-02T22:52:20.452Z,3.37
2023-05-02T22:54:49.381Z,3.73
2023-05-02T22:57:16.861Z,3.60
2023-05-02T22:59:44.334Z,3.77
2023-05-02T23:02:12.226Z,3.90
2023-05-02T23:04:39.721Z,3.33
2023-05-02T23:07:07.151Z,4.30
2023-05-02T23:09:34.658Z,4.03
2023-05-02T23:12:05.673Z,3.70
2023-05-02T23:14:33.282Z,3.93
2023-05-02T23:17:02.113Z,3.30
2023-05-02T23:19:30.019Z,4.03
2023-05-02T23:21:58.010Z,3.93
2023-05-02T23:24:25.531Z,7.13
2023-05-02T23:26:52.980Z,4.60
2023-05-02T23:29:21.769Z,3.60
2023-05-02T23:31:50.443Z,4.30
2023-05-02T23:34:17.987Z,4.50
2023-05-02T23:36:45.503Z,3.60
2023-05-02T23:39:13.375Z,4.30
2023-05-02T23:41:40.848Z,4.80
2023-05-02T23:44:08.269Z,4.03
2023-05-02T23:46:37.091Z,4.30
2023-05-02T23:49:04.573Z,3.93
2023-05-02T23:51:32.693Z,4.17
2023-05-02T23:54:00.182Z,3.47
2023-05-02T23:56:27.633Z,5.03
2023-05-02T23:58:57.224Z,3.87
